Time;durP1;ratioP1;P1;durP2;ratioP2;P2;SDS_P1;SDS_P2;PMS_P1;PMS_P2;Temp;Humidity;BMP_temperature;BMP_pressure;BME280_temperature;BME280_humidity;BME280_pressure;Samples;Min_cycle;Max_cycle;Signal;HPM_P1;HPM_P2
2022/11/28 00:01:54;;;;;;;1999.90;999.90;;;;;;;2.31;100.00;101044.84;5000965;28;20092;-74
2022/11/28 00:04:19;;;;;;;1999.90;999.90;;;;;;;2.33;100.00;101043.16;5003678;28;20045;-74
2022/11/28 00:06:47;;;;;;;1999.90;999.90;;;;;;;2.34;100.00;101038.00;5007387;28;20038;-74
2022/11/28 00:09:14;;;;;;;1999.90;999.90;;;;;;;2.36;100.00;101045.88;4999728;28;20046;-74
2022/11/28 00:11:40;;;;;;;1999.90;999.90;;;;;;;2.34;100.00;101031.91;5002518;28;20105;-74
2022/11/28 00:14:06;;;;;;;1999.90;999.90;;;;;;;2.37;100.00;101027.69;5001024;28;20053;-74
2022/11/28 00:16:31;;;;;;;1999.90;999.90;;;;;;;2.39;100.00;101022.53;5003281;28;20046;-74
2022/11/28 00:18:58;;;;;;;1999.90;999.90;;;;;;;2.42;100.00;101010.50;5000503;28;20085;-74
2022/11/28 00:21:24;;;;;;;1999.90;999.90;;;;;;;2.45;100.00;101007.13;5002999;28;20033;-74
2022/11/28 00:23:50;;;;;;;1999.90;999.90;;;;;;;2.47;100.00;101018.47;4999516;28;20042;-74
2022/11/28 00:26:26;;;;;;;1999.90;999.90;;;;;;;2.44;100.00;101005.34;5001979;28;20045;-74
2022/11/28 00:28:52;;;;;;;1999.90;999.90;;;;;;;2.45;100.00;101006.22;5002513;28;20045;-74
2022/11/28 00:31:21;;;;;;;1999.90;999.90;;;;;;;2.45;100.00;101008.84;4998223;28;20042;-74
2022/11/28 00:33:47;;;;;;;1999.90;999.90;;;;;;;2.46;100.00;101011.47;5002193;28;20044;-74
2022/11/28 00:36:13;;;;;;;1999.90;999.90;;;;;;;2.51;100.00;101009.03;5004091;28;20446;-74
2022/11/28 00:38:39;;;;;;;1999.90;999.90;;;;;;;2.50;100.00;101008.16;5005263;28;20050;-74
2022/11/28 00:41:07;;;;;;;1999.90;999.90;;;;;;;2.51;100.00;101004.72;5000263;28;20409;-74
2022/11/28 00:43:32;;;;;;;1999.90;999.90;;;;;;;2.52;100.00;101001.28;5004101;28;20046;-74
2022/11/28 00:45:58;;;;;;;1999.90;999.90;;;;;;;2.52;100.00;100993.47;5006044;28;20129;-74
2022/11/28 00:48:23;;;;;;;1999.90;999.90;;;;;;;2.55;100.00;100990.97;5004132;28;20049;-74
2022/11/28 00:50:49;;;;;;;1999.90;999.90;;;;;;;2.59;100.00;100989.34;5004913;28;20033;-74
2022/11/28 00:53:15;;;;;;;1999.90;999.90;;;;;;;2.62;100.00;100998.16;5005395;28;20443;-74
2022/11/28 00:55:40;;;;;;;1999.90;999.90;;;;;;;2.62;100.00;100985.13;4987239;28;20108;-74
2022/11/28 00:58:06;;;;;;;1999.90;999.90;;;;;;;2.65;100.00;100989.56;5003083;28;20062;-74
2022/11/28 01:00:31;;;;;;;1999.90;999.90;;;;;;;2.65;100.00;100979.13;5006561;28;20037;-74
2022/11/28 01:02:57;;;;;;;1999.90;999.90;;;;;;;2.68;100.00;100986.16;5005555;28;20033;-74
2022/11/28 01:05:22;;;;;;;1999.90;999.90;;;;;;;2.67;100.00;100979.16;5005914;28;20049;-74
2022/11/28 01:07:48;;;;;;;1999.90;999.90;;;;;;;2.68;100.00;100974.03;5012083;28;20030;-74
2022/11/28 01:10:13;;;;;;;1999.90;999.90;;;;;;;2.69;100.00;100974.91;5003644;28;20540;-74
2022/11/28 01:12:39;;;;;;;1999.90;999.90;;;;;;;2.69;100.00;100972.28;5010132;28;20501;-74
2022/11/28 01:15:08;;;;;;;1999.90;999.90;;;;;;;2.70;100.00;100974.03;5007796;28;20026;-74
2022/11/28 01:17:34;;;;;;;1999.90;999.90;;;;;;;2.69;100.00;100967.97;5003561;28;20060;-74
2022/11/28 01:20:00;;;;;;;1999.90;999.90;;;;;;;2.67;100.00;100971.34;5005990;28;20477;-74
2022/11/28 01:22:25;;;;;;;1999.90;999.90;;;;;;;2.67;100.00;100958.31;5008492;28;20026;-74
2022/11/28 01:24:50;;;;;;;1999.90;999.90;;;;;;;2.69;100.00;100961.88;5010608;28;20042;-74
2022/11/28 01:27:16;;;;;;;1999.90;999.90;;;;;;;2.70;100.00;100961.94;5002297;28;20034;-74
2022/11/28 01:29:41;;;;;;;1999.90;999.90;;;;;;;2.70;100.00;100967.13;5010101;28;20029;-74
2022/11/28 01:32:06;;;;;;;1999.90;999.90;;;;;;;2.70;100.00;100958.41;5004814;28;20074;-74
2022/11/28 01:34:32;;;;;;;1999.90;999.90;;;;;;;2.69;100.00;100951.44;5006937;28;20050;-75
2022/11/28 01:36:58;;;;;;;1999.90;999.90;;;;;;;2.70;100.00;100953.19;5004774;28;20037;-74
2022/11/28 01:39:24;;;;;;;1999.90;999.90;;;;;;;2.70;100.00;100946.28;5004995;28;20037;-74
2022/11/28 01:41:49;;;;;;;1999.90;999.90;;;;;;;2.73;100.00;100942.91;5002433;28;20516;-74
2022/11/28 01:44:15;;;;;;;1999.90;999.90;;;;;;;2.73;100.00;100949.00;5002106;28;20035;-74
2022/11/28 01:46:41;;;;;;;1999.90;999.90;;;;;;;2.77;100.00;100944.75;5005670;28;20093;-74
2022/11/28 01:49:14;;;;;;;1999.90;999.90;;;;;;;2.82;100.00;100944.06;5004371;28;20044;-74
2022/11/28 01:51:43;;;;;;;1999.90;999.90;;;;;;;2.85;100.00;100938.06;5005000;28;20473;-74
2022/11/28 01:54:08;;;;;;;1999.90;999.90;;;;;;;2.87;100.00;100931.16;5002083;28;20109;-74
2022/11/28 01:56:41;;;;;;;1999.90;999.90;;;;;;;2.94;100.00;100935.75;5004367;28;20601;-74
2022/11/28 01:59:10;;;;;;;1999.90;999.90;;;;;;;2.97;100.00;100933.22;5003054;28;20038;-74
2022/11/28 02:01:36;;;;;;;1999.90;999.90;;;;;;;3.00;100.00;100928.09;5020283;28;20064;-74
2022/11/28 02:04:02;;;;;;;1999.90;999.90;;;;;;;3.02;100.00;100923.84;5002080;28;20034;-74
2022/11/28 02:06:29;;;;;;;1999.90;999.90;;;;;;;3.04;100.00;100918.69;5008143;28;20053;-74
2022/11/28 02:08:55;;;;;;;1999.90;999.90;;;;;;;3.07;100.00;100908.34;5007063;28;20026;-74
2022/11/28 02:11:55;;;;;;;1999.90;999.90;;;;;;;3.11;100.00;100915.38;5003877;28;20037;-74
2022/11/28 02:14:52;;;;;;;1999.90;999.90;;;;;;;3.15;100.00;100908.56;5004924;28;20053;-74
2022/11/28 02:17:40;;;;;;;1999.90;999.90;;;;;;;3.21;100.00;100903.53;5002540;28;20042;-74
2022/11/28 02:20:35;;;;;;;1999.90;999.90;;;;;;;3.25;100.00;100897.56;5002787;28;20058;-74
2022/11/28 02:23:05;;;;;;;1999.90;999.90;;;;;;;3.25;100.00;100892.34;5003220;28;20061;-74
2022/11/28 02:26:00;;;;;;;1999.90;999.90;;;;;;;3.28;100.00;100892.44;5005640;28;20399;-75
2022/11/28 02:28:47;;;;;;;1999.90;999.90;;;;;;;3.26;100.00;100883.66;5004723;28;20072;-74
2022/11/28 02:31:57;;;;;;;1999.90;999.90;;;;;;;3.26;100.00;100887.16;5004528;28;20400;-74
2022/11/28 02:34:31;;;;;;;1999.90;999.90;;;;;;;3.25;100.00;100881.91;5002256;28;20046;-75
2022/11/28 02:37:10;;;;;;;1999.90;999.90;;;;;;;3.22;100.00;100884.41;5006651;28;20042;-74
2022/11/28 02:39:46;;;;;;;1999.90;999.90;;;;;;;3.21;100.00;100885.25;5003743;28;20041;-74
2022/11/28 02:42:19;;;;;;;1999.90;999.90;;;;;;;3.22;100.00;100881.81;5001935;28;20096;-74
2022/11/28 02:44:59;;;;;;;1999.90;999.90;;;;;;;3.21;100.00;100880.03;5004236;28;20091;-75
2022/11/28 02:47:31;;;;;;;1999.90;999.90;;;;;;;3.19;100.00;100876.50;5002009;28;20042;-74
2022/11/28 02:50:06;;;;;;;1999.90;999.90;;;;;;;3.13;100.00;100876.34;5001926;28;20062;-74
2022/11/28 02:52:46;;;;;;;1999.90;999.90;;;;;;;3.07;100.00;100871.81;5001582;28;20068;-75
2022/11/28 02:55:13;;;;;;;1999.90;999.90;;;;;;;3.00;100.00;100870.75;5007131;28;20065;-74
2022/11/28 02:57:46;;;;;;;1999.90;999.90;;;;;;;2.93;100.00;100875.72;5000831;28;20034;-74
2022/11/28 03:00:35;;;;;;;1999.90;999.90;;;;;;;2.84;100.00;100873.72;5002622;28;20392;-74
2022/11/28 03:03:18;;;;;;;1999.90;999.90;;;;;;;2.73;100.00;100870.81;5002476;28;20096;-74
2022/11/28 03:05:56;;;;;;;1999.90;999.90;;;;;;;2.63;100.00;100869.63;5001955;28;20042;-74
2022/11/28 03:08:47;;;;;;;1999.90;999.90;;;;;;;2.53;100.00;100871.88;5007185;28;20074;-74
2022/11/28 03:11:36;;;;;;;1999.90;999.90;;;;;;;2.46;100.00;100865.59;4974241;28;20432;-74
2022/11/28 03:14:18;;;;;;;1999.90;999.90;;;;;;;2.36;100.00;100854.00;5000549;28;20497;-74
2022/11/28 03:17:10;;;;;;;1999.90;999.90;;;;;;;2.30;100.00;100845.09;5003603;28;20042;-74
2022/11/28 03:19:46;;;;;;;1999.90;999.90;;;;;;;2.23;100.00;100846.63;5004553;28;20508;-74
2022/11/28 03:22:17;;;;;;;1999.90;999.90;;;;;;;2.14;100.00;100846.31;5001347;28;20455;-74
2022/11/28 03:27:21;;;;;;;1999.90;999.90;;;;;;;1.98;100.00;100844.94;5018867;28;20407;-75
2022/11/28 03:29:53;;;;;;;1999.90;999.90;;;;;;;1.88;100.00;100843.72;5018692;28;20041;-75
2022/11/28 03:32:35;;;;;;;1999.90;999.90;;;;;;;1.83;100.00;100844.41;5020496;28;20069;-75
2022/11/28 03:35:10;;;;;;;1999.90;999.90;;;;;;;1.75;100.00;100836.34;5019825;28;20058;-75
2022/11/28 03:37:44;;;;;;;1999.90;999.90;;;;;;;1.70;100.00;100832.69;5022919;28;20051;-76
2022/11/28 03:40:15;;;;;;;1999.90;999.90;;;;;;;1.66;100.00;100839.50;5021573;28;20408;-76
2022/11/28 03:42:46;;;;;;;1999.90;999.90;;;;;;;1.60;100.00;100833.19;5019697;28;20057;-75
2022/11/28 03:45:18;;;;;;;1999.90;999.90;;;;;;;1.54;100.00;100839.06;5019301;28;20045;-75
2022/11/28 03:47:47;;;;;;;1999.90;999.90;;;;;;;1.48;100.00;100841.47;5021614;28;20037;-75
2022/11/28 03:50:19;;;;;;;1999.90;999.90;;;;;;;1.44;100.00;100840.47;5019911;28;20381;-75
2022/11/28 03:52:50;;;;;;;1999.90;999.90;;;;;;;1.42;100.00;100836.06;5014999;28;20036;-75
2022/11/28 03:55:22;;;;;;;1999.90;999.90;;;;;;;1.39;100.00;100844.63;5018399;28;20072;-75
2022/11/28 03:57:58;;;;;;;1999.90;999.90;;;;;;;1.38;100.00;100839.38;5020609;28;20029;-75
2022/11/28 04:00:24;;;;;;;1999.90;999.90;;;;;;;1.37;100.00;100845.41;5021212;28;20033;-75
2022/11/28 04:03:05;;;;;;;1999.90;999.90;;;;;;;1.41;100.00;100831.66;5020007;28;20082;-75
2022/11/28 04:05:58;;;;;;;1999.90;999.90;;;;;;;1.48;100.00;100829.34;5017577;28;20037;-75
2022/11/28 04:08:34;;;;;;;1999.90;999.90;;;;;;;1.58;100.00;100832.28;5020417;28;20061;-75
2022/11/28 04:11:04;;;;;;;1999.90;999.90;;;;;;;1.64;100.00;100828.16;5019500;28;20172;-75
2022/11/28 04:13:40;;;;;;;1999.90;999.90;;;;;;;1.71;100.00;100830.16;5021514;28;20061;-75
2022/11/28 04:16:15;;;;;;;1999.90;999.90;;;;;;;1.82;100.00;100827.03;5022308;28;20512;-75
2022/11/28 04:19:04;;;;;;;1999.90;999.90;;;;;;;1.91;100.00;100832.53;5019633;28;20042;-75
2022/11/28 04:21:54;;;;;;;1999.90;999.90;;;;;;;1.98;100.00;100835.38;5004495;28;20092;-75
2022/11/28 04:24:28;;;;;;;1999.90;999.90;;;;;;;2.05;100.00;100828.69;5021929;28;20112;-75
2022/11/28 04:27:00;;;;;;;1999.90;999.90;;;;;;;2.11;100.00;100828.88;5023142;28;20041;-75
2022/11/28 04:29:28;;;;;;;1999.90;999.90;;;;;;;2.17;100.00;100830.78;5020673;28;20034;-75
2022/11/28 04:31:58;;;;;;;1999.90;999.90;;;;;;;2.21;100.00;100826.59;5024943;28;20499;-75
2022/11/28 04:34:26;;;;;;;1999.90;999.90;;;;;;;2.22;100.00;100816.19;5026090;28;20042;-75
2022/11/28 04:36:55;;;;;;;1999.90;999.90;;;;;;;2.24;100.00;100813.66;5024643;28;20456;-75
2022/11/28 04:39:24;;;;;;;1999.90;999.90;;;;;;;2.22;100.00;100812.72;5024165;28;20402;-75
2022/11/28 04:41:56;;;;;;;1999.90;999.90;;;;;;;2.20;100.00;100812.66;5024246;28;20484;-75
2022/11/28 04:44:30;;;;;;;1999.90;999.90;;;;;;;2.18;100.00;100806.53;5026333;28;20083;-75
2022/11/28 04:46:56;;;;;;;1999.90;999.90;;;;;;;2.14;100.00;100802.94;5024042;28;20488;-75
2022/11/28 04:49:23;;;;;;;1999.90;999.90;;;;;;;2.12;100.00;100804.63;5006589;28;20049;-76
2022/11/28 04:52:13;;;;;;;1999.90;999.90;;;;;;;2.12;100.00;100798.50;5025903;28;20396;-75
2022/11/28 04:54:45;;;;;;;1999.90;999.90;;;;;;;2.14;100.00;100800.31;5021754;28;20068;-76
2022/11/28 04:57:31;;;;;;;1999.90;999.90;;;;;;;2.14;100.00;100797.72;5017882;28;20038;-76
2022/11/28 04:59:59;;;;;;;1999.90;999.90;;;;;;;2.18;100.00;100794.41;5018571;28;20079;-76
2022/11/28 05:02:27;;;;;;;1999.90;999.90;;;;;;;2.19;100.00;100793.53;5018890;28;20088;-76
2022/11/28 05:04:54;;;;;;;1999.90;999.90;;;;;;;2.20;100.00;100791.81;5023637;28;20399;-76
2022/11/28 05:07:20;;;;;;;1999.90;999.90;;;;;;;2.22;100.00;100791.88;5023020;28;20761;-76
2022/11/28 05:09:46;;;;;;;1999.90;999.90;;;;;;;2.23;100.00;100788.44;5022249;28;20026;-76
2022/11/28 05:12:11;;;;;;;1999.90;999.90;;;;;;;2.26;100.00;100793.75;5022791;28;20030;-75
2022/11/28 05:14:36;;;;;;;1999.90;999.90;;;;;;;2.29;100.00;100797.34;5024898;28;20610;-76
2022/11/28 05:17:02;;;;;;;1999.90;999.90;;;;;;;2.32;100.00;100792.22;5019656;28;20480;-76
2022/11/28 05:19:27;;;;;;;1999.90;999.90;;;;;;;2.35;100.00;100788.81;5024243;28;20373;-76
2022/11/28 05:21:52;;;;;;;1999.90;999.90;;;;;;;2.36;100.00;100791.50;5022960;28;20506;-75
2022/11/28 05:24:18;;;;;;;1999.90;999.90;;;;;;;2.40;100.00;100789.84;5025523;28;20033;-76
2022/11/28 05:26:43;;;;;;;1999.90;999.90;;;;;;;2.41;100.00;100789.91;5021767;28;20044;-76
2022/11/28 05:29:08;;;;;;;1999.90;999.90;;;;;;;2.45;100.00;100790.88;5022535;28;20064;-76
2022/11/28 05:31:34;;;;;;;1999.90;999.90;;;;;;;2.45;100.00;100790.88;5025504;28;20100;-75
2022/11/28 05:33:59;;;;;;;1999.90;999.90;;;;;;;2.42;100.00;100780.38;5022742;28;20060;-75
2022/11/28 05:36:24;;;;;;;1999.90;999.90;;;;;;;2.42;100.00;100782.97;5016596;28;20033;-76
2022/11/28 05:38:50;;;;;;;1999.90;999.90;;;;;;;2.40;100.00;100776.81;5023224;28;20522;-76
2022/11/28 05:41:21;;;;;;;1999.90;999.90;;;;;;;2.36;100.00;100775.88;5017759;28;20045;-75
2022/11/28 05:43:46;;;;;;;1999.90;999.90;;;;;;;2.33;100.00;100773.16;5021267;28;20034;-75
2022/11/28 05:46:11;;;;;;;1999.90;999.90;;;;;;;2.27;100.00;100766.88;5018756;28;20056;-75
2022/11/28 05:48:37;;;;;;;1999.90;999.90;;;;;;;2.24;100.00;100758.97;5010210;28;20026;-75
2022/11/28 05:51:03;;;;;;;1999.90;999.90;;;;;;;2.24;100.00;100758.97;5017774;28;20037;-76
2022/11/28 05:53:29;;;;;;;1999.90;999.90;;;;;;;2.17;100.00;100756.19;5018214;28;20055;-76
2022/11/28 05:55:54;;;;;;;1999.90;999.90;;;;;;;2.14;100.00;100750.84;5017149;28;20476;-75
2022/11/28 05:58:19;;;;;;;1999.90;999.90;;;;;;;2.13;100.00;100749.09;5022108;28;20108;-75
2022/11/28 06:00:45;;;;;;;1999.90;999.90;;;;;;;2.12;100.00;100744.75;5019705;28;20042;-75
2022/11/28 06:03:10;;;;;;;1999.90;999.90;;;;;;;2.13;100.00;100743.88;4994581;28;20065;-76
2022/11/28 06:05:41;;;;;;;1999.90;999.90;;;;;;;2.14;100.00;100742.16;5023512;28;20431;-75
2022/11/28 06:08:06;;;;;;;1999.90;999.90;;;;;;;2.16;100.00;100741.38;5021496;28;20089;-75
2022/11/28 06:10:32;;;;;;;1999.90;999.90;;;;;;;2.22;100.00;100740.69;5024264;28;20045;-76
2022/11/28 06:12:57;;;;;;;1999.90;999.90;;;;;;;2.26;100.00;100739.94;5022454;28;20046;-75
2022/11/28 06:15:23;;;;;;;1999.90;999.90;;;;;;;2.32;100.00;100742.72;5022686;28;20083;-76
2022/11/28 06:17:48;;;;;;;1999.90;999.90;;;;;;;2.35;100.00;100739.34;5021753;28;20045;-77
2022/11/28 06:20:13;;;;;;;1999.90;999.90;;;;;;;2.41;100.00;100732.59;5018754;28;20045;-77
2022/11/28 06:22:39;;;;;;;1999.90;999.90;;;;;;;2.46;100.00;100739.66;5022563;28;20076;-76
2022/11/28 06:25:04;;;;;;;1999.90;999.90;;;;;;;2.51;100.00;100740.69;5017971;28;20057;-77
2022/11/28 06:27:29;;;;;;;1999.90;999.90;;;;;;;2.56;100.00;100733.88;5017784;28;20038;-76
2022/11/28 06:29:55;;;;;;;1999.90;999.90;;;;;;;2.51;100.00;100736.34;5021073;28;20041;-76
2022/11/28 06:32:20;;;;;;;1999.90;999.90;;;;;;;2.46;100.00;100732.72;5020852;28;20041;-77
2022/11/28 06:34:45;;;;;;;1999.90;999.90;;;;;;;2.48;100.00;100730.16;5020200;28;20045;-76
2022/11/28 06:37:11;;;;;;;1999.90;999.90;;;;;;;2.56;100.00;100732.16;5017932;28;20041;-77
2022/11/28 06:39:36;;;;;;;1999.90;999.90;;;;;;;2.60;100.00;100728.81;5020773;28;20065;-77
2022/11/28 06:42:01;;;;;;;1999.90;999.90;;;;;;;2.59;100.00;100727.06;5018920;28;20038;-77
2022/11/28 06:44:27;;;;;;;1999.90;999.90;;;;;;;2.60;100.00;100726.22;5018407;28;20033;-77
2022/11/28 06:46:53;;;;;;;1999.90;999.90;;;;;;;2.74;100.00;100718.78;5016524;28;20033;-77
2022/11/28 06:49:19;;;;;;;1999.90;999.90;;;;;;;2.84;100.00;100719.94;5022891;28;20052;-76
2022/11/28 06:51:44;;;;;;;1999.90;999.90;;;;;;;2.85;100.00;100719.09;5021250;28;20018;-76
2022/11/28 06:54:10;;;;;;;1999.90;999.90;;;;;;;2.85;100.00;100721.69;5021632;28;20103;-76
2022/11/28 06:56:35;;;;;;;1999.90;999.90;;;;;;;2.92;100.00;100714.94;5023272;28;20025;-76
2022/11/28 06:59:01;;;;;;;1999.90;999.90;;;;;;;2.94;100.00;100708.03;5021391;28;20139;-77
2022/11/28 07:01:29;;;;;;;1999.90;999.90;;;;;;;3.00;100.00;100709.06;5022306;28;20091;-76
2022/11/28 07:03:54;;;;;;;1999.90;999.90;;;;;;;3.07;100.00;100705.81;5023018;28;20392;-77
2022/11/28 07:06:21;;;;;;;1999.90;999.90;;;;;;;3.08;100.00;100704.94;5021891;28;20041;-76
2022/11/28 07:08:47;;;;;;;1999.90;999.90;;;;;;;3.15;100.00;100698.19;5023656;28;20037;-76
2022/11/28 07:11:15;;;;;;;1999.90;999.90;;;;;;;3.20;100.00;100696.59;5012146;28;20030;-77
2022/11/28 07:13:42;;;;;;;1999.90;999.90;;;;;;;3.18;100.00;100690.44;5021431;28;20033;-77
2022/11/28 07:16:12;;;;;;;1999.90;999.90;;;;;;;3.27;100.00;100684.56;5020761;28;20056;-77
2022/11/28 07:18:38;;;;;;;1999.90;999.90;;;;;;;3.25;100.00;100694.09;5023436;28;20040;-76
2022/11/28 07:21:03;;;;;;;1999.90;999.90;;;;;;;3.25;100.00;100689.78;5020274;28;20060;-76
2022/11/28 07:23:29;;;;;;;1999.90;999.90;;;;;;;3.34;100.00;100686.50;5022626;28;20060;-76
2022/11/28 07:25:59;;;;;;;1999.90;999.90;;;;;;;3.40;100.00;100683.16;5021100;28;20041;-76
2022/11/28 07:28:25;;;;;;;1999.90;999.90;;;;;;;3.34;100.00;100683.91;5022688;28;20094;-77
2022/11/28 07:31:18;;;;;;;1999.90;999.90;;;;;;;3.20;100.00;100674.84;5019914;28;20049;-76
2022/11/28 07:33:46;;;;;;;1999.90;999.90;;;;;;;3.07;100.00;100671.91;5013465;28;20145;-76
2022/11/28 07:36:17;;;;;;;1999.90;999.90;;;;;;;3.01;100.00;100669.16;5018418;28;20504;-76
2022/11/28 07:38:48;;;;;;;1999.90;999.90;;;;;;;3.03;100.00;100670.03;5019261;28;20084;-76
2022/11/28 07:41:13;;;;;;;1999.90;999.90;;;;;;;3.16;100.00;100659.94;5022804;28;20029;-76
2022/11/28 07:43:41;;;;;;;1999.90;999.90;;;;;;;3.28;100.00;100662.88;5020216;28;20464;-77
2022/11/28 07:46:09;;;;;;;1999.90;999.90;;;;;;;3.44;100.00;100653.72;5003609;28;20511;-77
2022/11/28 07:48:35;;;;;;;1999.90;999.90;;;;;;;3.58;100.00;100656.66;4989098;28;20037;-76
2022/11/28 07:51:09;;;;;;;1999.90;999.90;;;;;;;3.70;100.00;100663.03;5020276;28;20044;-77
2022/11/28 07:53:34;;;;;;;1999.90;999.90;;;;;;;3.81;100.00;100668.50;5015594;28;20045;-76
2022/11/28 07:56:02;;;;;;;1999.90;999.90;;;;;;;3.92;100.00;100680.09;5001774;28;20403;-76
2022/11/28 07:58:27;;;;;;;1999.90;999.90;;;;;;;4.05;100.00;100675.16;4998033;28;20064;-77
2022/11/28 08:00:53;;;;;;;1999.90;999.90;;;;;;;4.14;100.00;100675.38;5022201;28;20073;-76
2022/11/28 08:03:18;;;;;;;1999.90;999.90;;;;;;;4.27;100.00;100686.94;5022207;28;20037;-77
2022/11/28 08:05:48;;;;;;;1999.90;999.90;;;;;;;4.37;100.00;100683.69;5011699;28;20030;-77
2022/11/28 08:08:17;;;;;;;1999.90;999.90;;;;;;;4.46;100.00;100678.66;5021846;28;20052;-77
2022/11/28 08:10:43;;;;;;;1999.90;999.90;;;;;;;4.56;100.00;100678.00;5015510;28;20403;-77
2022/11/28 08:13:09;;;;;;;1999.90;999.90;;;;;;;4.71;100.00;100673.94;5017894;28;20049;-76
2022/11/28 08:15:38;;;;;;;1999.90;999.90;;;;;;;4.78;99.93;100662.75;4976997;28;20050;-77
2022/11/28 08:18:05;;;;;;;1999.90;999.90;;;;;;;4.87;100.00;100656.81;5021905;28;20041;-77
2022/11/28 08:20:30;;;;;;;1999.90;999.90;;;;;;;4.98;99.56;100663.13;5018466;28;20408;-76
2022/11/28 08:22:56;;;;;;;1999.90;999.90;;;;;;;5.04;99.25;100655.41;5021550;28;20041;-77
2022/11/28 08:25:21;;;;;;;1999.90;999.90;;;;;;;5.15;98.79;100655.59;5019396;28;20036;-76
2022/11/28 08:27:46;;;;;;;1999.90;999.90;;;;;;;5.23;98.21;100652.25;5022583;28;20036;-77
2022/11/28 08:30:12;;;;;;;1999.90;999.90;;;;;;;5.34;98.02;100646.31;5019584;28;20504;-74
2022/11/28 08:32:38;;;;;;;1999.90;999.90;;;;;;;5.42;96.58;100647.31;5020803;28;20103;-77
2022/11/28 08:35:04;;;;;;;1999.90;999.90;;;;;;;5.42;96.69;100655.16;5016963;28;20025;-77
2022/11/28 08:37:29;;;;;;;1999.90;999.90;;;;;;;5.47;96.55;100654.38;5016840;28;20034;-77
2022/11/28 08:39:54;;;;;;;1999.90;999.90;;;;;;;5.60;96.25;100663.31;5020685;28;20034;-78
2022/11/28 08:42:20;;;;;;;1999.90;999.90;;;;;;;5.68;95.50;100659.09;5018365;28;20088;-78
2022/11/28 08:44:46;;;;;;;1999.90;999.90;;;;;;;5.69;94.22;100658.25;5011136;28;20041;-77
2022/11/28 08:47:11;;;;;;;1999.90;999.90;;;;;;;5.80;94.17;100658.41;5018386;28;20030;-78
2022/11/28 08:49:38;;;;;;;1999.90;999.90;;;;;;;5.87;93.68;100648.91;5013757;28;20484;-78
2022/11/28 08:52:04;;;;;;;1999.90;999.90;;;;;;;5.96;93.90;100651.69;5020141;28;20041;-78
2022/11/28 08:54:29;;;;;;;1999.90;999.90;;;;;;;6.04;93.41;100652.69;5005219;28;20495;-78
2022/11/28 08:56:55;;;;;;;1999.90;999.90;;;;;;;6.13;92.90;100647.59;5019738;28;20128;-77
2022/11/28 08:59:20;;;;;;;1999.90;999.90;;;;;;;6.20;92.85;100650.28;5015342;28;20049;-77
2022/11/28 09:01:45;;;;;;;1999.90;999.90;;;;;;;6.21;91.71;100652.03;5017293;28;20030;-78
2022/11/28 09:04:11;;;;;;;1999.90;999.90;;;;;;;6.21;91.15;100649.41;5018158;28;20072;-77
2022/11/28 09:06:39;;;;;;;1999.90;999.90;;;;;;;6.28;91.52;100651.25;5016148;28;20037;-77
2022/11/28 09:09:04;;;;;;;1999.90;999.90;;;;;;;6.33;90.66;100647.81;5018630;28;20056;-77
2022/11/28 09:11:30;;;;;;;1999.90;999.90;;;;;;;6.33;89.70;100653.06;5029664;28;20060;-77
2022/11/28 09:13:55;;;;;;;1999.90;999.90;;;;;;;6.30;89.12;100649.53;5021441;28;20112;-78
2022/11/28 09:16:21;;;;;;;1999.90;999.90;;;;;;;6.32;88.94;100653.06;5022974;28;20053;-78
2022/11/28 09:18:46;;;;;;;1999.90;999.90;;;;;;;6.37;89.19;100654.00;5019201;28;20508;-77
2022/11/28 09:21:14;;;;;;;1999.90;999.90;;;;;;;6.41;88.46;100663.66;5021605;28;20038;-77
2022/11/28 09:23:41;;;;;;;1999.90;999.90;;;;;;;6.47;88.38;100663.75;5022648;28;20488;-77
2022/11/28 09:26:25;;;;;;;1999.90;999.90;;;;;;;6.59;88.44;100656.03;5077730;22;20061;-76
2022/11/28 09:28:51;;;;;;;1999.90;999.90;;;;;;;6.69;88.96;100637.78;5028641;28;20510;-78
2022/11/28 09:31:17;;;;;;;1999.90;999.90;;;;;;;6.74;88.07;100636.97;5025752;28;20030;-78
2022/11/28 09:33:44;;;;;;;1999.90;999.90;;;;;;;6.77;86.67;100639.63;5026217;28;20033;-78
2022/11/28 09:36:13;;;;;;;1999.90;999.90;;;;;;;6.75;86.88;100632.59;5032210;28;20068;-78
2022/11/28 09:38:38;;;;;;;1999.90;999.90;;;;;;;6.82;86.88;100623.94;5029141;28;20038;-78
2022/11/28 09:41:27;;;;;;;1999.90;999.90;;;;;;;6.97;87.51;100628.47;5027292;28;20052;-78
2022/11/28 09:43:57;;;;;;;1999.90;999.90;;;;;;;7.00;85.28;100629.38;5023517;28;20034;-78
2022/11/28 09:46:30;;;;;;;1999.90;999.90;;;;;;;7.07;86.25;100637.28;5031028;28;20506;-78
2022/11/28 09:49:01;;;;;;;1999.90;999.90;;;;;;;7.05;85.33;100647.78;5019146;28;20412;-79
2022/11/28 09:51:35;;;;;;;1999.90;999.90;;;;;;;6.82;84.68;100639.69;5008062;28;20029;-77
2022/11/28 09:54:12;;;;;;;1999.90;999.90;;;;;;;6.90;84.69;100645.88;5005270;28;20056;-78
2022/11/28 09:56:38;;;;;;;1999.90;999.90;;;;;;;6.87;84.28;100651.09;5025400;28;20065;-77
2022/11/28 09:59:07;;;;;;;1999.90;999.90;;;;;;;6.84;84.09;100653.69;5028333;28;20044;-78
2022/11/28 10:01:42;;;;;;;1999.90;999.90;;;;;;;6.81;83.57;100648.38;5006212;28;20037;-78
2022/11/28 10:04:19;;;;;;;1999.90;999.90;;;;;;;6.88;84.35;100638.84;5024666;28;20045;-78
2022/11/28 10:07:18;;;;;;;1999.90;999.90;;;;;;;6.98;84.05;100645.97;5028176;28;20041;-78
2022/11/28 10:10:01;;;;;;;1999.90;999.90;;;;;;;6.90;82.63;100643.25;5031979;28;20041;-78
2022/11/28 10:12:49;;;;;;;1999.90;999.90;;;;;;;6.99;83.92;100631.97;5005414;28;20116;-77
2022/11/28 10:15:26;;;;;;;1999.90;999.90;;;;;;;7.08;83.75;100626.81;5022735;28;20088;-79
2022/11/28 10:18:01;;;;;;;1999.90;999.90;;;;;;;7.18;83.66;100614.69;5024594;28;20045;-78
2022/11/28 10:20:33;;;;;;;1999.90;999.90;;;;;;;7.20;83.24;100607.66;5023028;28;20476;-78
2022/11/28 10:23:04;;;;;;;1999.90;999.90;;;;;;;7.19;82.81;100612.03;5025350;28;20036;-77
2022/11/28 10:25:35;;;;;;;1999.90;999.90;;;;;;;7.20;82.97;100621.69;5026412;28;20030;-78
2022/11/28 10:28:04;;;;;;;1999.90;999.90;;;;;;;7.21;82.81;100619.94;5027176;28;20030;-78
2022/11/28 10:30:36;;;;;;;1999.90;999.90;;;;;;;7.27;83.30;100617.38;5030145;28;20037;-78
2022/11/28 10:33:23;;;;;;;1999.90;999.90;;;;;;;7.32;82.35;100615.66;5021976;28;20048;-78
2022/11/28 10:35:56;;;;;;;1999.90;999.90;;;;;;;7.34;82.31;100623.56;5011872;28;20076;-78
2022/11/28 10:38:26;;;;;;;1999.90;999.90;;;;;;;7.30;81.15;100617.38;5026159;28;20037;-78
2022/11/28 10:41:02;;;;;;;1999.90;999.90;;;;;;;7.30;82.33;100612.13;5006548;28;20033;-78
2022/11/28 10:43:58;;;;;;;1999.90;999.90;;;;;;;7.36;81.82;100619.19;5021254;28;20044;-78
2022/11/28 10:46:49;;;;;;;1999.90;999.90;;;;;;;7.42;81.46;100617.50;5022938;28;20037;-78
2022/11/28 10:49:33;;;;;;;1999.90;999.90;;;;;;;7.48;81.48;100621.91;5023302;28;20037;-78
2022/11/28 10:52:07;;;;;;;1999.90;999.90;;;;;;;7.50;81.59;100617.56;4995397;28;20531;-78
2022/11/28 10:54:42;;;;;;;1999.90;999.90;;;;;;;7.54;81.49;100610.56;5024275;28;20072;-77
2022/11/28 10:57:14;;;;;;;1999.90;999.90;;;;;;;7.53;80.52;100604.44;4984784;28;20044;-78
2022/11/28 11:00:00;;;;;;;1999.90;999.90;;;;;;;7.53;80.47;100608.81;5023818;28;20083;-78
2022/11/28 11:02:36;;;;;;;1999.90;999.90;;;;;;;7.58;81.60;100609.75;5023012;28;20075;-78
2022/11/28 11:05:02;;;;;;;1999.90;999.90;;;;;;;7.57;80.51;100602.72;5025973;28;20275;-78
2022/11/28 11:07:29;;;;;;;1999.90;999.90;;;;;;;7.53;80.23;100606.19;5028728;28;20384;-78